createdAt,value
2018-07-28T00:01:44.387Z,49.31
2018-07-28T00:04:17.783Z,49.74
2018-07-28T00:06:51.220Z,49.14
2018-07-28T00:09:24.585Z,49.86
2018-07-28T00:11:58.028Z,49.44
2018-07-28T00:14:31.426Z,49.78
2018-07-28T00:17:04.942Z,49.98
2018-07-28T00:19:38.346Z,50.40
2018-07-28T00:22:11.736Z,50.24
2018-07-28T00:24:45.110Z,50.31
2018-07-28T00:27:18.573Z,50.55
2018-07-28T00:29:51.953Z,50.42
2018-07-28T00:32:25.354Z,50.69
2018-07-28T00:34:58.698Z,50.98
2018-07-28T00:37:32.175Z,50.80
2018-07-28T00:40:06.146Z,51.14
2018-07-28T00:42:39.556Z,51.39
2018-07-28T00:45:12.946Z,51.12
2018-07-28T00:47:46.358Z,52.02
2018-07-28T00:50:19.747Z,51.79
2018-07-28T00:52:53.160Z,52.50
2018-07-28T00:55:26.535Z,52.23
2018-07-28T00:57:59.935Z,52.29
2018-07-28T01:00:33.367Z,53.60
2018-07-28T01:03:06.775Z,53.56
2018-07-28T01:05:40.207Z,53.32
2018-07-28T01:08:13.613Z,52.77
2018-07-28T01:10:47.031Z,53.69
2018-07-28T01:13:20.436Z,54.26
2018-07-28T01:15:53.810Z,53.23
2018-07-28T01:18:27.208Z,54.24
2018-07-28T01:21:00.635Z,54.20
2018-07-28T01:23:34.088Z,53.86
2018-07-28T01:26:07.479Z,53.60
2018-07-28T01:28:40.890Z,54.39
2018-07-28T01:31:14.279Z,54.78
2018-07-28T01:33:48.590Z,55.04
2018-07-28T01:36:21.983Z,54.91
2018-07-28T01:38:55.407Z,54.84
2018-07-28T01:41:28.811Z,54.49
2018-07-28T01:44:02.231Z,54.35
2018-07-28T01:46:35.607Z,54.46
2018-07-28T01:49:09.103Z,54.54
2018-07-28T01:51:42.522Z,54.90
2018-07-28T01:54:16.652Z,55.07
2018-07-28T01:56:50.043Z,55.32
2018-07-28T01:59:23.464Z,55.21
2018-07-28T02:01:56.865Z,54.79
2018-07-28T02:04:30.347Z,55.17
2018-07-28T02:07:03.775Z,55.40
2018-07-28T02:09:37.205Z,55.06
2018-07-28T02:12:10.600Z,55.34
2018-07-28T02:14:44.028Z,55.49
2018-07-28T02:17:17.491Z,56.00
2018-07-28T02:19:50.920Z,55.95
2018-07-28T02:22:24.340Z,55.74
2018-07-28T02:24:57.763Z,55.64
2018-07-28T02:27:31.171Z,56.11
2018-07-28T02:30:05.190Z,55.56
2018-07-28T02:32:39.549Z,55.86
2018-07-28T02:35:12.968Z,56.41
2018-07-28T02:37:46.398Z,56.38
2018-07-28T02:40:19.820Z,56.65
2018-07-28T02:42:53.299Z,56.57
2018-07-28T02:45:26.697Z,56.50
2018-07-28T02:48:00.120Z,56.89
2018-07-28T02:50:33.573Z,56.17
2018-07-28T02:53:07.121Z,56.67
2018-07-28T02:55:40.504Z,57.08
2018-07-28T02:58:13.927Z,57.01
2018-07-28T03:00:47.324Z,56.59
2018-07-28T03:03:20.962Z,57.02
2018-07-28T03:05:54.351Z,57.32
2018-07-28T03:08:27.812Z,57.82
2018-07-28T03:11:01.221Z,57.70
2018-07-28T03:13:34.797Z,57.50
2018-07-28T03:16:12.624Z,57.18
2018-07-28T03:18:46.060Z,57.71
2018-07-28T03:21:19.495Z,58.03
2018-07-28T03:23:52.871Z,58.11
2018-07-28T03:26:26.363Z,58.22
2018-07-28T03:28:59.768Z,58.65
2018-07-28T03:31:33.171Z,58.01
2018-07-28T03:34:06.841Z,58.52
2018-07-28T03:36:40.220Z,58.41
2018-07-28T03:39:13.654Z,58.77
2018-07-28T03:41:46.984Z,58.10
2018-07-28T03:44:20.831Z,57.79
2018-07-28T03:46:54.219Z,58.61
2018-07-28T03:49:27.595Z,58.02
2018-07-28T03:52:00.951Z,58.74
2018-07-28T03:54:34.395Z,58.57
2018-07-28T03:57:07.773Z,59.27
2018-07-28T03:59:41.164Z,59.21
2018-07-28T04:02:14.607Z,58.87
2018-07-28T04:04:48.395Z,58.15
2018-07-28T04:07:21.763Z,58.29
2018-07-28T04:09:55.200Z,58.13
2018-07-28T04:12:28.562Z,58.67
2018-07-28T04:15:01.956Z,58.40
2018-07-28T04:17:39.561Z,58.39
2018-07-28T04:20:13.076Z,58.39
2018-07-28T04:22:46.896Z,58.71
2018-07-28T04:25:20.634Z,58.45
2018-07-28T04:27:54.010Z,59.14
2018-07-28T04:30:27.414Z,58.78
2018-07-28T04:33:00.772Z,58.16
2018-07-28T04:35:34.178Z,59.07
2018-07-28T04:38:07.570Z,59.33
2018-07-28T04:40:40.996Z,58.87
2018-07-28T04:43:14.352Z,58.11
2018-07-28T04:45:47.767Z,58.40
2018-07-28T04:48:21.120Z,58.70
2018-07-28T04:50:54.504Z,58.34
2018-07-28T04:53:27.981Z,57.97
2018-07-28T04:56:01.366Z,57.42
2018-07-28T04:58:34.820Z,57.30
2018-07-28T05:01:08.275Z,56.74
2018-07-28T05:03:41.673Z,56.08
2018-07-28T05:06:15.035Z,56.67
2018-07-28T05:08:48.381Z,56.32
2018-07-28T05:11:21.857Z,54.98
2018-07-28T05:13:55.209Z,55.39
2018-07-28T05:16:28.621Z,54.45
2018-07-28T05:19:01.975Z,54.60
2018-07-28T05:21:35.405Z,54.74
2018-07-28T05:24:08.828Z,54.59
2018-07-28T05:26:42.247Z,54.52
2018-07-28T05:29:15.615Z,54.38
2018-07-28T05:31:49.065Z,53.91
2018-07-28T05:34:22.476Z,53.76
2018-07-28T05:36:55.875Z,53.68
2018-07-28T05:39:29.248Z,52.49
2018-07-28T05:42:02.698Z,53.47
2018-07-28T05:44:36.079Z,52.71
2018-07-28T05:47:09.474Z,52.82
2018-07-28T05:49:42.838Z,52.56
2018-07-28T05:52:16.339Z,51.93
2018-07-28T05:54:49.687Z,51.56
2018-07-28T05:57:23.047Z,52.37
2018-07-28T05:59:56.411Z,51.75
2018-07-28T06:02:29.894Z,51.30
2018-07-28T06:05:03.203Z,51.85
2018-07-28T06:07:36.637Z,51.30
2018-07-28T06:10:10.046Z,51.52
2018-07-28T06:12:43.457Z,51.97
2018-07-28T06:15:16.848Z,51.17
2018-07-28T06:17:50.232Z,51.59
2018-07-28T06:20:23.714Z,51.01
2018-07-28T06:22:57.092Z,50.35
2018-07-28T06:25:30.465Z,50.58
2018-07-28T06:28:03.870Z,49.20
2018-07-28T06:30:37.243Z,49.05
2018-07-28T06:33:10.663Z,48.59
2018-07-28T06:35:44.042Z,49.25
2018-07-28T06:38:17.536Z,49.68
2018-07-28T06:40:50.958Z,50.18
2018-07-28T06:43:24.337Z,49.76
2018-07-28T06:45:57.806Z,48.28
2018-07-28T06:48:31.175Z,48.29
2018-07-28T06:51:04.630Z,47.99
2018-07-28T06:53:38.066Z,47.03
2018-07-28T06:56:11.452Z,46.67
2018-07-28T06:58:44.803Z,47.65
2018-07-28T07:01:18.352Z,46.52
2018-07-28T07:03:51.699Z,47.12
2018-07-28T07:06:25.933Z,45.94
2018-07-28T07:09:08.802Z,46.32
2018-07-28T07:11:42.212Z,46.34
2018-07-28T07:14:15.593Z,46.45
2018-07-28T07:16:48.976Z,45.83
2018-07-28T07:19:22.371Z,45.45
2018-07-28T07:21:55.770Z,46.30
2018-07-28T07:24:29.148Z,46.08
2018-07-28T07:27:02.531Z,44.16
2018-07-28T07:29:35.921Z,43.51
2018-07-28T07:32:09.335Z,44.80
2018-07-28T07:34:42.742Z,42.61
2018-07-28T07:37:16.735Z,44.12
2018-07-28T07:39:50.132Z,43.67
2018-07-28T07:42:23.556Z,44.57
2018-07-28T07:44:57.048Z,44.58
2018-07-28T07:47:30.464Z,45.73
2018-07-28T07:50:03.929Z,45.06
2018-07-28T07:52:37.303Z,44.01
2018-07-28T07:55:10.688Z,44.34
2018-07-28T07:57:44.069Z,43.24
2018-07-28T08:00:17.448Z,43.43
2018-07-28T08:02:50.846Z,43.47
2018-07-28T08:05:24.185Z,42.59
2018-07-28T08:07:57.547Z,42.28
2018-07-28T08:10:30.917Z,42.11
2018-07-28T08:13:04.361Z,40.71
2018-07-28T08:15:37.765Z,40.80
2018-07-28T08:18:11.152Z,40.11
2018-07-28T08:20:44.534Z,40.43
2018-07-28T08:23:17.927Z,40.14
2018-07-28T08:25:51.299Z,40.09
2018-07-28T08:28:24.679Z,41.25
2018-07-28T08:30:58.053Z,39.67
2018-07-28T08:33:31.593Z,40.91
2018-07-28T08:36:05.005Z,42.47
2018-07-28T08:38:38.401Z,40.10
2018-07-28T08:41:11.754Z,39.28
2018-07-28T08:43:45.435Z,39.52
2018-07-28T08:46:18.819Z,39.37
2018-07-28T08:48:52.324Z,39.17
2018-07-28T08:51:25.690Z,38.13
2018-07-28T08:53:59.088Z,37.92
2018-07-28T08:56:32.454Z,38.05
2018-07-28T08:59:05.943Z,38.27
2018-07-28T09:01:39.298Z,39.04
2018-07-28T09:04:13.320Z,38.29
2018-07-28T09:06:46.700Z,40.59
2018-07-28T09:09:20.661Z,37.33
2018-07-28T09:11:54.217Z,36.53
2018-07-28T09:14:27.619Z,37.39
2018-07-28T09:17:00.980Z,35.97
2018-07-28T09:19:34.443Z,37.67
2018-07-28T09:22:07.839Z,34.60
2018-07-28T09:24:41.287Z,34.12
2018-07-28T09:27:14.696Z,33.66
2018-07-28T09:29:48.082Z,34.70
2018-07-28T09:32:21.470Z,34.17
2018-07-28T09:34:55.077Z,34.61
2018-07-28T09:37:28.460Z,34.69
2018-07-28T09:40:01.869Z,33.67
2018-07-28T09:42:35.763Z,34.25
2018-07-28T09:45:09.141Z,33.68
2018-07-28T09:47:42.511Z,35.26
2018-07-28T09:50:15.908Z,32.58
2018-07-28T09:52:49.291Z,32.63
2018-07-28T09:55:22.728Z,32.18
2018-07-28T09:57:56.109Z,31.43
2018-07-28T10:00:34.825Z,31.56
2018-07-28T10:03:08.247Z,32.25
2018-07-28T10:05:41.652Z,30.52
2018-07-28T10:08:15.050Z,31.10
2018-07-28T10:10:48.415Z,32.91
2018-07-28T10:13:21.802Z,30.82
2018-07-28T10:15:55.159Z,32.63
2018-07-28T10:18:28.539Z,32.56
2018-07-28T10:21:02.000Z,31.24
2018-07-28T10:23:35.399Z,32.08
2018-07-28T10:26:08.890Z,31.34
2018-07-28T10:28:42.305Z,34.00
2018-07-28T10:31:17.367Z,31.92
2018-07-28T10:33:50.825Z,31.51
2018-07-28T10:36:24.274Z,29.93
2018-07-28T10:38:57.569Z,31.47
2018-07-28T10:41:30.981Z,29.79
2018-07-28T10:44:04.383Z,30.27
2018-07-28T10:46:37.736Z,31.75
2018-07-28T10:49:11.161Z,30.04
2018-07-28T10:51:44.607Z,31.12
2018-07-28T10:54:17.999Z,30.77
2018-07-28T10:56:51.338Z,28.92
2018-07-28T10:59:24.708Z,29.03
2018-07-28T11:01:58.071Z,30.80
2018-07-28T11:04:31.446Z,29.96
2018-07-28T11:07:05.013Z,29.02
2018-07-28T11:09:38.398Z,29.63
2018-07-28T11:12:11.828Z,30.71
2018-07-28T11:14:45.268Z,29.27
2018-07-28T11:17:18.630Z,30.24
2018-07-28T11:19:52.031Z,28.45
2018-07-28T11:22:25.404Z,29.16
2018-07-28T11:24:58.812Z,29.99
2018-07-28T11:27:32.180Z,29.28
2018-07-28T11:30:06.020Z,29.70
2018-07-28T11:32:50.731Z,29.32
2018-07-28T11:35:35.577Z,29.71
2018-07-28T11:38:33.111Z,30.15
2018-07-28T11:41:17.784Z,28.81
2018-07-28T11:44:02.326Z,29.06
2018-07-28T11:46:35.718Z,29.27
2018-07-28T11:49:09.081Z,30.12
2018-07-28T11:51:42.468Z,29.96
2018-07-28T11:54:15.815Z,29.25
2018-07-28T11:56:49.194Z,29.92
2018-07-28T11:59:22.527Z,29.17
2018-07-28T12:01:55.899Z,28.78
2018-07-28T12:04:29.273Z,29.78
2018-07-28T12:07:02.652Z,30.03
2018-07-28T12:09:36.015Z,28.75
2018-07-28T12:12:09.376Z,28.70
2018-07-28T12:14:42.741Z,30.29
2018-07-28T12:17:16.107Z,29.81
2018-07-28T12:19:49.483Z,30.44
2018-07-28T12:22:22.870Z,29.53
2018-07-28T12:24:56.223Z,30.38
2018-07-28T12:27:29.600Z,28.54
2018-07-28T12:30:03.001Z,30.35
2018-07-28T12:32:36.430Z,29.15
2018-07-28T12:35:09.805Z,29.66
2018-07-28T12:37:43.275Z,30.05
2018-07-28T12:40:16.652Z,29.76
2018-07-28T12:42:50.022Z,30.50
2018-07-28T12:45:23.388Z,31.72
2018-07-28T12:47:56.773Z,30.87
2018-07-28T12:50:30.128Z,31.11
2018-07-28T12:53:03.556Z,31.58
2018-07-28T12:55:36.954Z,31.16
2018-07-28T12:58:10.355Z,31.78
2018-07-28T13:00:43.727Z,32.78
2018-07-28T13:03:17.151Z,33.36
2018-07-28T13:05:50.847Z,33.78
2018-07-28T13:08:24.270Z,34.55
2018-07-28T13:10:57.663Z,34.92
2018-07-28T13:13:31.046Z,35.90
2018-07-28T13:16:04.446Z,36.69
2018-07-28T13:18:37.832Z,37.46
2018-07-28T13:21:11.233Z,39.30
2018-07-28T13:23:44.652Z,41.93
2018-07-28T13:26:18.017Z,42.26
2018-07-28T13:28:51.397Z,42.62
2018-07-28T13:31:24.784Z,44.11
2018-07-28T13:33:58.159Z,44.72
2018-07-28T13:36:31.557Z,45.41
2018-07-28T13:39:06.919Z,48.16
2018-07-28T13:41:40.298Z,48.04
2018-07-28T13:44:13.644Z,49.22
2018-07-28T13:46:47.056Z,49.88
2018-07-28T13:49:20.499Z,51.51
2018-07-28T13:51:53.871Z,51.57
2018-07-28T13:54:27.226Z,52.27
2018-07-28T13:57:00.607Z,53.58
2018-07-28T13:59:33.996Z,54.10
2018-07-28T14:02:07.378Z,54.99
2018-07-28T14:04:40.747Z,55.35
2018-07-28T14:07:14.135Z,54.78
2018-07-28T14:09:47.547Z,55.55
2018-07-28T14:12:20.969Z,55.94
2018-07-28T14:14:54.360Z,55.86
2018-07-28T14:17:27.740Z,56.21
2018-07-28T14:20:01.221Z,56.53
2018-07-28T14:22:34.734Z,57.37
2018-07-28T14:25:08.267Z,57.94
2018-07-28T14:27:41.648Z,58.16
2018-07-28T14:30:15.000Z,58.78
2018-07-28T14:32:49.043Z,59.43
2018-07-28T14:35:22.380Z,59.77
2018-07-28T14:37:55.764Z,59.52
2018-07-28T14:40:29.631Z,59.59
2018-07-28T14:43:03.142Z,60.41
2018-07-28T14:45:36.964Z,60.78
2018-07-28T14:48:10.432Z,61.27
2018-07-28T14:50:43.792Z,61.98
2018-07-28T14:53:17.190Z,61.37
2018-07-28T14:55:51.855Z,62.36
2018-07-28T14:58:25.277Z,62.43
2018-07-28T15:00:58.628Z,62.53
2018-07-28T15:03:32.043Z,63.26
2018-07-28T15:06:05.420Z,62.78
2018-07-28T15:08:38.804Z,63.24
2018-07-28T15:11:12.427Z,63.09
2018-07-28T15:13:45.807Z,63.21
2018-07-28T15:16:19.169Z,63.10
2018-07-28T15:18:52.531Z,63.38
2018-07-28T15:21:25.941Z,63.52
2018-07-28T15:23:59.582Z,63.59
2018-07-28T15:26:32.984Z,63.32
2018-07-28T15:29:06.391Z,63.39
2018-07-28T15:31:40.048Z,63.27
2018-07-28T15:34:13.536Z,63.22
2018-07-28T15:36:47.089Z,63.47
2018-07-28T15:39:20.724Z,63.57
2018-07-28T15:41:54.275Z,63.86
2018-07-28T15:44:27.912Z,63.75
2018-07-28T15:47:02.308Z,63.64
2018-07-28T15:49:35.966Z,64.17
2018-07-28T15:52:09.524Z,64.21
2018-07-28T15:54:43.095Z,64.18
2018-07-28T15:57:16.618Z,64.86
2018-07-28T15:59:50.140Z,65.00
2018-07-28T16:02:23.711Z,65.03
2018-07-28T16:04:57.679Z,64.82
2018-07-28T16:07:31.256Z,64.33
2018-07-28T16:10:05.035Z,64.45
2018-07-28T16:12:38.397Z,64.04
2018-07-28T16:15:11.788Z,63.87
2018-07-28T16:17:45.291Z,64.40
2018-07-28T16:20:18.795Z,64.58
2018-07-28T16:22:52.656Z,64.14
2018-07-28T16:25:26.269Z,64.09
2018-07-28T16:27:59.813Z,64.02
2018-07-28T16:30:33.488Z,63.38
2018-07-28T16:33:07.296Z,63.51
2018-07-28T16:35:41.002Z,63.16
2018-07-28T16:38:16.873Z,63.08
2018-07-28T16:40:50.959Z,62.76
2018-07-28T16:43:24.592Z,62.68
2018-07-28T16:45:58.264Z,62.41
2018-07-28T16:48:31.953Z,62.90
2018-07-28T16:51:05.919Z,63.40
2018-07-28T16:53:40.827Z,63.42
2018-07-28T16:56:14.577Z,63.07
2018-07-28T16:58:48.173Z,62.52
2018-07-28T17:01:21.820Z,63.10
2018-07-28T17:03:55.532Z,62.87
2018-07-28T17:06:29.954Z,63.38
2018-07-28T17:09:04.626Z,63.41
2018-07-28T17:11:38.566Z,63.23
2018-07-28T17:14:12.672Z,62.79
2018-07-28T17:16:46.409Z,62.43
2018-07-28T17:19:20.603Z,62.60
2018-07-28T17:21:54.157Z,62.81
2018-07-28T17:24:27.759Z,62.52
2018-07-28T17:27:01.346Z,62.15
2018-07-28T17:29:34.980Z,62.53
2018-07-28T17:32:09.290Z,62.62
2018-07-28T17:34:42.835Z,62.34
2018-07-28T17:37:17.164Z,62.93
2018-07-28T17:39:50.793Z,62.86
2018-07-28T17:42:24.963Z,62.26
2018-07-28T17:44:58.554Z,63.13
2018-07-28T17:47:32.184Z,63.34
2018-07-28T17:50:06.138Z,63.25
2018-07-28T17:52:39.790Z,63.10
2018-07-28T17:55:13.554Z,63.14
2018-07-28T17:57:47.918Z,63.59
2018-07-28T18:00:22.389Z,63.48
2018-07-28T18:02:56.577Z,63.98
2018-07-28T18:05:30.660Z,64.31
2018-07-28T18:08:04.114Z,64.62
2018-07-28T18:10:37.888Z,63.67
2018-07-28T18:13:11.374Z,64.11
2018-07-28T18:15:44.768Z,63.78
2018-07-28T18:18:18.529Z,64.04
2018-07-28T18:20:51.978Z,63.86
2018-07-28T18:23:26.122Z,63.34
2018-07-28T18:25:59.689Z,63.49
2018-07-28T18:28:33.144Z,63.40
2018-07-28T18:31:07.588Z,63.57
2018-07-28T18:33:41.045Z,63.43
2018-07-28T18:36:15.391Z,64.17
2018-07-28T18:38:52.167Z,63.76
2018-07-28T18:41:26.457Z,63.29
2018-07-28T18:44:00.068Z,63.35
2018-07-28T18:46:33.783Z,63.53
2018-07-28T18:49:07.200Z,63.55
2018-07-28T18:51:40.734Z,63.33
2018-07-28T18:54:14.152Z,62.92
2018-07-28T18:56:47.791Z,63.03
2018-07-28T19:00:24.940Z,63.06
2018-07-28T19:02:58.731Z,63.04
2018-07-28T19:05:32.545Z,63.14
2018-07-28T19:08:06.427Z,63.09
2018-07-28T19:10:40.411Z,62.76
2018-07-28T19:13:19.196Z,62.37
2018-07-28T19:15:52.699Z,63.15
2018-07-28T19:18:31.717Z,63.02
2018-07-28T19:21:06.534Z,63.02
2018-07-28T19:23:45.457Z,62.78
2018-07-28T19:26:19.124Z,63.00
2018-07-28T19:29:56.815Z,62.89
2018-07-28T19:32:31.771Z,63.07
2018-07-28T19:35:06.163Z,62.89
2018-07-28T19:37:40.717Z,63.39
2018-07-28T19:40:15.085Z,63.38
2018-07-28T19:42:52.292Z,63.79
2018-07-28T19:45:27.495Z,63.66
2018-07-28T19:48:01.080Z,63.50
2018-07-28T19:50:34.529Z,63.94
2018-07-28T19:53:07.900Z,63.86
2018-07-28T19:55:41.288Z,63.97
2018-07-28T19:58:20.987Z,64.05
2018-07-28T20:00:54.390Z,64.12
2018-07-28T20:03:27.764Z,64.34
2018-07-28T20:06:01.188Z,64.53
2018-07-28T20:08:34.711Z,64.80
2018-07-28T20:11:08.106Z,65.17
2018-07-28T20:13:41.478Z,65.42
2018-07-28T20:16:14.953Z,65.50
2018-07-28T20:18:49.154Z,65.55
2018-07-28T20:21:22.988Z,65.80
2018-07-28T20:23:56.336Z,65.56
2018-07-28T20:26:29.996Z,65.88
2018-07-28T20:29:03.411Z,65.77
2018-07-28T20:31:36.823Z,65.93
2018-07-28T20:34:10.263Z,66.40
2018-07-28T20:36:45.186Z,66.06
2018-07-28T20:39:19.378Z,65.94
2018-07-28T20:41:52.767Z,66.50
2018-07-28T20:44:26.423Z,66.55
2018-07-28T20:47:00.251Z,66.33
2018-07-28T20:49:33.815Z,66.35
2018-07-28T20:52:07.340Z,66.73
2018-07-28T20:54:41.304Z,67.04
2018-07-28T20:57:14.736Z,67.35
2018-07-28T20:59:48.100Z,67.60
2018-07-28T21:02:21.482Z,68.36
2018-07-28T21:04:55.483Z,67.68
2018-07-28T21:07:28.943Z,68.09
2018-07-28T21:10:03.657Z,68.69
2018-07-28T21:12:37.128Z,68.27
2018-07-28T21:15:10.891Z,68.62
2018-07-28T21:17:44.320Z,69.06
2018-07-28T21:20:19.241Z,69.78
2018-07-28T21:22:52.957Z,69.19
2018-07-28T21:25:26.352Z,69.50
2018-07-28T21:28:00.730Z,69.75
2018-07-28T21:30:34.185Z,70.19
2018-07-28T21:33:07.571Z,70.09
2018-07-28T21:35:40.953Z,70.19
2018-07-28T21:38:14.331Z,70.61
2018-07-28T21:40:47.772Z,70.33
2018-07-28T21:43:21.233Z,69.99
2018-07-28T21:45:54.592Z,70.22
2018-07-28T21:48:27.980Z,70.95
2018-07-28T21:51:01.379Z,71.07
2018-07-28T21:53:34.826Z,70.87
2018-07-28T21:56:08.208Z,70.87
2018-07-28T21:58:41.602Z,70.81
2018-07-28T22:01:16.992Z,71.19
2018-07-28T22:03:50.436Z,70.86
2018-07-28T22:06:23.779Z,71.40
2018-07-28T22:08:57.233Z,71.32
2018-07-28T22:11:30.618Z,71.72
2018-07-28T22:14:04.055Z,72.20
2018-07-28T22:16:38.176Z,71.74
2018-07-28T22:19:11.879Z,71.46
2018-07-28T22:21:45.269Z,71.60
2018-07-28T22:24:18.916Z,71.90
2018-07-28T22:26:53.212Z,71.84
2018-07-28T22:29:26.590Z,72.04
2018-07-28T22:32:00.279Z,71.54
2018-07-28T22:34:33.708Z,71.40
2018-07-28T22:37:07.883Z,71.19
2018-07-28T22:39:41.637Z,71.62
2018-07-28T22:42:15.190Z,71.65
2018-07-28T22:44:49.102Z,71.31
2018-07-28T22:47:23.380Z,72.00
2018-07-28T22:49:56.925Z,71.20
2018-07-28T22:52:30.737Z,71.09
2018-07-28T22:55:04.992Z,71.50
2018-07-28T22:57:39.167Z,70.94
2018-07-28T23:00:13.202Z,71.06
2018-07-28T23:02:47.335Z,71.18
2018-07-28T23:05:21.260Z,71.35
2018-07-28T23:07:55.230Z,71.06
2018-07-28T23:10:29.215Z,71.33
2018-07-28T23:13:03.294Z,71.25
2018-07-28T23:15:37.011Z,71.14
2018-07-28T23:18:10.495Z,71.37
2018-07-28T23:20:44.522Z,71.18
2018-07-28T23:23:18.440Z,71.51
2018-07-28T23:25:52.587Z,70.99
2018-07-28T23:28:26.290Z,71.02
2018-07-28T23:31:00.060Z,71.24
2018-07-28T23:33:34.704Z,71.19
2018-07-28T23:36:08.442Z,71.29
2018-07-28T23:38:42.348Z,71.10
2018-07-28T23:41:16.720Z,71.58
2018-07-28T23:43:50.648Z,71.17
2018-07-28T23:46:24.152Z,71.53
2018-07-28T23:48:57.659Z,71.16
2018-07-28T23:51:31.054Z,71.57
2018-07-28T23:54:04.588Z,71.73
2018-07-28T23:56:37.985Z,71.68
2018-07-28T23:59:11.498Z,71.39
